WJA438 CYQT-CYXE
Flight info
| Callsign | WJA438 |
|---|---|
| Flight time | 2h 43m |
| Altitude | 38000 |
| Route | DEGVA DCT YDN DCT PENPI DUNEM7 |
| Aircraft | B738/M-SDE2E3FGHIRWXY/LB1 |
Departure
| Time | 2026-04-28 10:53 |
|---|---|
| Airport | Thunder Bay International Airport (CYQT) |
Arrival
| Time | 2026-04-28 13:36 |
|---|---|
| Airport | Saskatoon John G. Diefenbaker International Airport (CYXE) |
| Time | Latitude | Longitude | Altitude | Speed | Heading |
|---|---|---|---|---|---|
| 2026-04-28 10:16 | 48.37294 | -89.31193 | 658 ft | 0 kts | 171° |
| 2026-04-28 10:47 | 48.37286 | -89.31194 | 659 ft | 5 kts | 187° |
| 2026-04-28 10:48 | 48.37295 | -89.31280 | 657 ft | 12 kts | 348° |
| 2026-04-28 10:48 | 48.37364 | -89.31229 | 657 ft | 12 kts | 53° |
| 2026-04-28 10:48 | 48.37406 | -89.31187 | 656 ft | 7 kts | 356° |
| 2026-04-28 10:48 | 48.37423 | -89.31190 | 658 ft | 0 kts | 353° |
| 2026-04-28 10:49 | 48.37425 | -89.31190 | 658 ft | 0 kts | 351° |
| 2026-04-28 10:50 | 48.37430 | -89.31192 | 658 ft | 4 kts | 352° |
| 2026-04-28 10:50 | 48.37486 | -89.31193 | 657 ft | 10 kts | 358° |
| 2026-04-28 10:50 | 48.37550 | -89.31120 | 657 ft | 16 kts | 68° |
| 2026-04-28 10:50 | 48.37595 | -89.30934 | 659 ft | 22 kts | 63° |
| 2026-04-28 10:51 | 48.37646 | -89.30729 | 658 ft | 12 kts | 59° |
| 2026-04-28 10:51 | 48.37684 | -89.30623 | 658 ft | 11 kts | 64° |
| 2026-04-28 10:51 | 48.37686 | -89.30567 | 657 ft | 3 kts | 178° |
| 2026-04-28 10:51 | 48.37669 | -89.30593 | 658 ft | 0 kts | 250° |
| 2026-04-28 10:52 | 48.37666 | -89.30605 | 658 ft | 13 kts | 251° |
| 2026-04-28 10:52 | 48.37539 | -89.31122 | 658 ft | 93 kts | 251° |
| 2026-04-28 10:52 | 48.37240 | -89.32375 | 666 ft | 159 kts | 249° |
| 2026-04-28 10:53 | 48.36802 | -89.34044 | 1231 ft | 178 kts | 250° |
| 2026-04-28 10:53 | 48.36298 | -89.35822 | 2020 ft | 192 kts | 249° |
| 2026-04-28 10:53 | 48.35857 | -89.37748 | 2714 ft | 197 kts | 268° |
| 2026-04-28 10:53 | 48.36163 | -89.39714 | 3408 ft | 196 kts | 304° |
| 2026-04-28 10:54 | 48.37108 | -89.41159 | 4047 ft | 201 kts | 313° |
| 2026-04-28 10:54 | 48.37821 | -89.43107 | 4256 ft | 226 kts | 289° |
| 2026-04-28 10:54 | 48.38293 | -89.45446 | 4651 ft | 244 kts | 288° |
| 2026-04-28 10:54 | 48.38909 | -89.47941 | 5106 ft | 259 kts | 293° |
| 2026-04-28 10:55 | 48.39622 | -89.50473 | 6035 ft | 263 kts | 294° |
| 2026-04-28 10:55 | 48.40378 | -89.53001 | 6934 ft | 271 kts | 294° |
| 2026-04-28 10:55 | 48.41173 | -89.55599 | 7821 ft | 273 kts | 294° |
| 2026-04-28 10:55 | 48.41983 | -89.58232 | 8697 ft | 280 kts | 294° |
| 2026-04-28 10:56 | 48.42821 | -89.60894 | 9536 ft | 285 kts | 294° |
| 2026-04-28 10:56 | 48.43655 | -89.63571 | 10329 ft | 289 kts | 293° |
| 2026-04-28 10:56 | 48.44531 | -89.66423 | 10638 ft | 312 kts | 292° |
| 2026-04-28 10:56 | 48.45487 | -89.69491 | 10954 ft | 331 kts | 292° |
| 2026-04-28 10:57 | 48.46466 | -89.72674 | 11670 ft | 336 kts | 291° |
| 2026-04-28 10:57 | 48.47469 | -89.75868 | 12479 ft | 340 kts | 292° |
| 2026-04-28 10:57 | 48.48490 | -89.79093 | 13133 ft | 345 kts | 291° |
| 2026-04-28 10:57 | 48.49511 | -89.82409 | 13841 ft | 350 kts | 291° |
| 2026-04-28 10:58 | 48.50534 | -89.85759 | 14580 ft | 354 kts | 291° |
| 2026-04-28 10:58 | 48.51570 | -89.89150 | 15269 ft | 359 kts | 291° |
| 2026-04-28 10:58 | 48.52623 | -89.92597 | 15915 ft | 364 kts | 291° |
| 2026-04-28 10:58 | 48.53688 | -89.96080 | 16586 ft | 368 kts | 291° |
| 2026-04-28 10:59 | 48.54771 | -89.99616 | 17213 ft | 374 kts | 290° |
| 2026-04-28 10:59 | 48.55879 | -90.03245 | 17099 ft | 382 kts | 290° |
| 2026-04-28 10:59 | 48.56754 | -90.06955 | 17018 ft | 369 kts | 277° |
| 2026-04-28 10:59 | 48.56801 | -90.10725 | 17036 ft | 356 kts | 256° |
| 2026-04-28 11:00 | 48.55985 | -90.14220 | 16725 ft | 357 kts | 238° |
| 2026-04-28 11:00 | 48.54395 | -90.17069 | 16156 ft | 357 kts | 217° |
| 2026-04-28 11:00 | 48.52231 | -90.18840 | 15611 ft | 356 kts | 197° |
| 2026-04-28 11:00 | 48.49814 | -90.19301 | 15070 ft | 357 kts | 178° |
| 2026-04-28 11:01 | 48.47375 | -90.18376 | 14508 ft | 361 kts | 157° |
| 2026-04-28 11:01 | 48.45320 | -90.16181 | 13964 ft | 367 kts | 136° |
| 2026-04-28 11:01 | 48.43831 | -90.13103 | 13451 ft | 369 kts | 125° |
| 2026-04-28 11:01 | 48.42414 | -90.09896 | 12907 ft | 368 kts | 126° |
| 2026-04-28 11:02 | 48.41062 | -90.06640 | 12351 ft | 362 kts | 124° |
| 2026-04-28 11:02 | 48.39807 | -90.03397 | 11799 ft | 353 kts | 122° |
| 2026-04-28 11:02 | 48.38633 | -90.00187 | 11242 ft | 347 kts | 121° |
| 2026-04-28 11:02 | 48.37500 | -89.97015 | 10689 ft | 340 kts | 121° |
| 2026-04-28 11:03 | 48.36398 | -89.93915 | 10129 ft | 334 kts | 120° |
| 2026-04-28 11:03 | 48.35302 | -89.90880 | 9588 ft | 330 kts | 121° |
| 2026-04-28 11:03 | 48.34201 | -89.87880 | 9036 ft | 323 kts | 120° |
| 2026-04-28 11:03 | 48.33113 | -89.84950 | 8487 ft | 318 kts | 120° |
| 2026-04-28 11:04 | 48.32028 | -89.82075 | 7934 ft | 314 kts | 120° |
| 2026-04-28 11:04 | 48.30972 | -89.79277 | 7415 ft | 302 kts | 121° |
| 2026-04-28 11:04 | 48.29936 | -89.76593 | 6892 ft | 290 kts | 120° |
| 2026-04-28 11:04 | 48.28946 | -89.74028 | 6352 ft | 278 kts | 120° |
| 2026-04-28 11:05 | 48.27991 | -89.71595 | 5830 ft | 264 kts | 120° |
| 2026-04-28 11:05 | 48.27077 | -89.69251 | 5281 ft | 256 kts | 120° |
| 2026-04-28 11:05 | 48.26158 | -89.66979 | 4741 ft | 256 kts | 121° |
| 2026-04-28 11:05 | 48.25242 | -89.64721 | 4250 ft | 255 kts | 120° |
| 2026-04-28 11:06 | 48.24633 | -89.62251 | 4075 ft | 256 kts | 92° |
| 2026-04-28 11:06 | 48.24924 | -89.59684 | 4042 ft | 246 kts | 64° |
| 2026-04-28 11:06 | 48.25554 | -89.57295 | 4020 ft | 247 kts | 69° |
| 2026-04-28 11:06 | 48.26061 | -89.54829 | 4011 ft | 249 kts | 70° |
| 2026-04-28 11:07 | 48.26555 | -89.52339 | 4025 ft | 249 kts | 71° |
| 2026-04-28 11:07 | 48.27044 | -89.49835 | 4014 ft | 248 kts | 71° |
| 2026-04-28 11:07 | 48.27543 | -89.47379 | 4000 ft | 244 kts | 70° |
| 2026-04-28 11:07 | 48.28033 | -89.44950 | 4008 ft | 243 kts | 71° |
| 2026-04-28 11:08 | 48.28513 | -89.42504 | 4015 ft | 242 kts | 71° |
| 2026-04-28 11:08 | 48.28936 | -89.40094 | 3994 ft | 233 kts | 74° |
| 2026-04-28 11:08 | 48.29296 | -89.37787 | 3986 ft | 224 kts | 73° |
| 2026-04-28 11:08 | 48.29670 | -89.35498 | 4009 ft | 228 kts | 74° |
| 2026-04-28 11:09 | 48.30040 | -89.33150 | 4007 ft | 233 kts | 74° |
| 2026-04-28 11:09 | 48.30413 | -89.30836 | 4011 ft | 232 kts | 73° |
| 2026-04-28 11:09 | 48.30792 | -89.28492 | 4005 ft | 229 kts | 75° |
| 2026-04-28 11:09 | 48.31154 | -89.26171 | 4002 ft | 229 kts | 76° |
| 2026-04-28 11:10 | 48.31499 | -89.23860 | 4013 ft | 228 kts | 75° |
| 2026-04-28 11:10 | 48.31884 | -89.21524 | 3994 ft | 233 kts | 74° |
| 2026-04-28 11:10 | 48.32273 | -89.19162 | 3868 ft | 232 kts | 74° |
| 2026-04-28 11:10 | 48.32663 | -89.16829 | 3739 ft | 229 kts | 74° |
| 2026-04-28 11:11 | 48.33052 | -89.14514 | 3611 ft | 228 kts | 74° |
| 2026-04-28 11:11 | 48.33444 | -89.12201 | 3486 ft | 229 kts | 74° |
| 2026-04-28 11:11 | 48.33847 | -89.09897 | 3373 ft | 227 kts | 71° |
| 2026-04-28 11:11 | 48.34605 | -89.07842 | 3204 ft | 225 kts | 42° |
| 2026-04-28 11:12 | 48.35948 | -89.06741 | 3087 ft | 223 kts | 8° |
| 2026-04-28 11:12 | 48.37442 | -89.06968 | 3021 ft | 213 kts | 334° |
| 2026-04-28 11:12 | 48.38481 | -89.08347 | 2993 ft | 192 kts | 301° |
| 2026-04-28 11:12 | 48.39079 | -89.10021 | 2996 ft | 173 kts | 296° |
| 2026-04-28 11:13 | 48.39453 | -89.11627 | 2979 ft | 162 kts | 274° |
| 2026-04-28 11:13 | 48.39455 | -89.13312 | 3002 ft | 162 kts | 271° |
| 2026-04-28 11:13 | 48.39465 | -89.14993 | 3001 ft | 160 kts | 272° |
| 2026-04-28 11:13 | 48.39478 | -89.16647 | 3009 ft | 157 kts | 272° |
| 2026-04-28 11:14 | 48.39470 | -89.18295 | 2938 ft | 159 kts | 269° |
| 2026-04-28 11:14 | 48.39414 | -89.20020 | 2679 ft | 168 kts | 267° |
| 2026-04-28 11:14 | 48.39297 | -89.21745 | 2272 ft | 165 kts | 264° |
| 2026-04-28 11:14 | 48.39115 | -89.23457 | 1776 ft | 167 kts | 261° |
| 2026-04-28 11:15 | 48.38896 | -89.25176 | 1280 ft | 172 kts | 259° |
| 2026-04-28 11:15 | 48.38571 | -89.26803 | 1265 ft | 154 kts | 252° |
| 2026-04-28 11:15 | 48.38188 | -89.28303 | 1012 ft | 153 kts | 251° |
| 2026-04-28 11:15 | 48.37840 | -89.29790 | 795 ft | 149 kts | 250° |
| 2026-04-28 11:16 | 48.37508 | -89.31222 | 657 ft | 139 kts | 250° |
| 2026-04-28 11:16 | 48.37317 | -89.32038 | 656 ft | 110 kts | 250° |
| 2026-04-28 11:16 | 48.37138 | -89.32860 | 655 ft | 52 kts | 256° |
| 2026-04-28 11:16 | 48.37039 | -89.33211 | 657 ft | 22 kts | 236° |
| 2026-04-28 11:17 | 48.37073 | -89.33239 | 658 ft | 12 kts | 94° |
| 2026-04-28 11:17 | 48.37082 | -89.33119 | 657 ft | 11 kts | 76° |
| 2026-04-28 11:17 | 48.37109 | -89.32958 | 655 ft | 23 kts | 81° |
| 2026-04-28 11:17 | 48.37065 | -89.32800 | 655 ft | 13 kts | 127° |
| 2026-04-28 11:18 | 48.37030 | -89.32680 | 654 ft | 10 kts | 93° |
| 2026-04-28 11:18 | 48.37035 | -89.32583 | 658 ft | 9 kts | 78° |
| 2026-04-28 11:18 | 48.37042 | -89.32547 | 655 ft | 0 kts | 69° |
| 2026-04-28 11:19 | 48.37294 | -89.31193 | 655 ft | 0 kts | 171° |
| 2026-04-28 11:34 | 48.37295 | -89.31194 | 655 ft | 1 kts | 171° |
| 2026-04-28 11:35 | 48.37310 | -89.31197 | 655 ft | 3 kts | 171° |
| 2026-04-28 11:35 | 48.37330 | -89.31203 | 655 ft | 3 kts | 170° |
| 2026-04-28 11:35 | 48.37349 | -89.31208 | 656 ft | 3 kts | 160° |
| 2026-04-28 11:35 | 48.37367 | -89.31221 | 655 ft | 3 kts | 143° |
| 2026-04-28 11:36 | 48.37381 | -89.31241 | 655 ft | 3 kts | 124° |
| 2026-04-28 11:36 | 48.37388 | -89.31257 | 661 ft | 1 kts | 118° |
| 2026-04-28 11:36 | 48.37390 | -89.31261 | 655 ft | 0 kts | 118° |
| 2026-04-28 11:38 | 48.37393 | -89.31235 | 655 ft | 5 kts | 61° |
| 2026-04-28 11:39 | 48.37418 | -89.31204 | 658 ft | 5 kts | 25° |
| 2026-04-28 11:39 | 48.37427 | -89.31199 | 658 ft | 0 kts | 13° |
| 2026-04-28 11:40 | 48.37434 | -89.31198 | 657 ft | 5 kts | 5° |
| 2026-04-28 11:40 | 48.37496 | -89.31194 | 657 ft | 10 kts | 9° |
| 2026-04-28 11:40 | 48.37545 | -89.31128 | 657 ft | 10 kts | 60° |
| 2026-04-28 11:40 | 48.37578 | -89.31034 | 659 ft | 12 kts | 63° |
| 2026-04-28 11:41 | 48.37625 | -89.30875 | 659 ft | 21 kts | 70° |
| 2026-04-28 11:41 | 48.37673 | -89.30675 | 658 ft | 16 kts | 70° |
| 2026-04-28 11:41 | 48.37688 | -89.30569 | 657 ft | 5 kts | 146° |
| 2026-04-28 11:41 | 48.37667 | -89.30600 | 658 ft | 0 kts | 250° |
| 2026-04-28 11:42 | 48.37661 | -89.30626 | 658 ft | 21 kts | 250° |
| 2026-04-28 11:42 | 48.37516 | -89.31241 | 657 ft | 102 kts | 250° |
| 2026-04-28 11:42 | 48.37202 | -89.32580 | 682 ft | 166 kts | 250° |
| 2026-04-28 11:42 | 48.36800 | -89.34313 | 1433 ft | 176 kts | 257° |
| 2026-04-28 11:43 | 48.36468 | -89.36018 | 2636 ft | 162 kts | 248° |
| 2026-04-28 11:43 | 48.35963 | -89.37483 | 3574 ft | 160 kts | 244° |
| 2026-04-28 11:43 | 48.35522 | -89.39147 | 3913 ft | 187 kts | 271° |
| 2026-04-28 11:43 | 48.35897 | -89.41104 | 4175 ft | 209 kts | 300° |
| 2026-04-28 11:44 | 48.36770 | -89.43002 | 4454 ft | 231 kts | 307° |
| 2026-04-28 11:44 | 48.37751 | -89.45008 | 4853 ft | 250 kts | 305° |
| 2026-04-28 11:44 | 48.38753 | -89.47249 | 5511 ft | 261 kts | 302° |
| 2026-04-28 11:44 | 48.39712 | -89.49593 | 6474 ft | 266 kts | 300° |
| 2026-04-28 11:45 | 48.40639 | -89.52041 | 7314 ft | 271 kts | 297° |
| 2026-04-28 11:45 | 48.41527 | -89.54550 | 8177 ft | 276 kts | 297° |
| 2026-04-28 11:45 | 48.42430 | -89.57129 | 9096 ft | 280 kts | 296° |
| 2026-04-28 11:45 | 48.43326 | -89.59780 | 9888 ft | 286 kts | 295° |
| 2026-04-28 11:46 | 48.44231 | -89.62568 | 10190 ft | 310 kts | 294° |
| 2026-04-28 11:46 | 48.45176 | -89.65629 | 10408 ft | 334 kts | 292° |
| 2026-04-28 11:46 | 48.46148 | -89.68869 | 10914 ft | 344 kts | 292° |
| 2026-04-28 11:46 | 48.47173 | -89.72145 | 11739 ft | 346 kts | 292° |
| 2026-04-28 11:47 | 48.48219 | -89.75439 | 12552 ft | 350 kts | 292° |
| 2026-04-28 11:47 | 48.49275 | -89.78776 | 13257 ft | 355 kts | 292° |
| 2026-04-28 11:47 | 48.50340 | -89.82167 | 13947 ft | 361 kts | 291° |
| 2026-04-28 11:47 | 48.51416 | -89.85623 | 14640 ft | 366 kts | 291° |
| 2026-04-28 11:48 | 48.52496 | -89.89116 | 15337 ft | 370 kts | 291° |
| 2026-04-28 11:48 | 48.53577 | -89.92626 | 15989 ft | 375 kts | 291° |
| 2026-04-28 11:48 | 48.54678 | -89.96218 | 16621 ft | 380 kts | 291° |
| 2026-04-28 11:48 | 48.55792 | -89.99864 | 17252 ft | 384 kts | 291° |
| 2026-04-28 11:49 | 48.56917 | -90.03549 | 17876 ft | 389 kts | 291° |
| 2026-04-28 11:49 | 48.58050 | -90.07271 | 18513 ft | 392 kts | 291° |
| 2026-04-28 11:49 | 48.59193 | -90.11034 | 19124 ft | 396 kts | 291° |
| 2026-04-28 11:49 | 48.60348 | -90.14838 | 19711 ft | 399 kts | 291° |
| 2026-04-28 11:50 | 48.61507 | -90.18661 | 20277 ft | 403 kts | 291° |
| 2026-04-28 11:50 | 48.62679 | -90.22532 | 20836 ft | 406 kts | 292° |
| 2026-04-28 11:50 | 48.63857 | -90.26429 | 21377 ft | 409 kts | 292° |
| 2026-04-28 11:50 | 48.65043 | -90.30362 | 21901 ft | 412 kts | 292° |
| 2026-04-28 11:51 | 48.66238 | -90.34327 | 22418 ft | 416 kts | 292° |
| 2026-04-28 11:51 | 48.67439 | -90.38316 | 22949 ft | 418 kts | 292° |
| 2026-04-28 11:51 | 48.68647 | -90.42336 | 23440 ft | 421 kts | 292° |
| 2026-04-28 11:51 | 48.69859 | -90.46381 | 23913 ft | 424 kts | 292° |
| 2026-04-28 11:52 | 48.71080 | -90.50459 | 24395 ft | 426 kts | 292° |
| 2026-04-28 11:52 | 48.72304 | -90.54557 | 24846 ft | 428 kts | 292° |
| 2026-04-28 11:52 | 48.73531 | -90.58670 | 25297 ft | 430 kts | 292° |
| 2026-04-28 11:52 | 48.74770 | -90.62832 | 25744 ft | 432 kts | 292° |
| 2026-04-28 11:53 | 48.75989 | -90.66935 | 26150 ft | 434 kts | 292° |
| 2026-04-28 11:53 | 48.77233 | -90.71130 | 26541 ft | 437 kts | 292° |
| 2026-04-28 11:53 | 48.78480 | -90.75338 | 26927 ft | 439 kts | 292° |
| 2026-04-28 11:53 | 48.79732 | -90.79573 | 27325 ft | 441 kts | 292° |
| 2026-04-28 11:54 | 48.80989 | -90.83834 | 27689 ft | 443 kts | 292° |
| 2026-04-28 11:54 | 48.82251 | -90.88118 | 28047 ft | 445 kts | 292° |
| 2026-04-28 11:54 | 48.83517 | -90.92419 | 28396 ft | 447 kts | 292° |
| 2026-04-28 11:54 | 48.84789 | -90.96750 | 28734 ft | 449 kts | 292° |
| 2026-04-28 11:55 | 48.86061 | -91.01089 | 29041 ft | 451 kts | 292° |
| 2026-04-28 11:55 | 48.87341 | -91.05463 | 29347 ft | 453 kts | 292° |
| 2026-04-28 11:55 | 48.88621 | -91.09843 | 29646 ft | 455 kts | 292° |
| 2026-04-28 11:55 | 48.89908 | -91.14259 | 29944 ft | 457 kts | 292° |
| 2026-04-28 11:56 | 48.91179 | -91.18628 | 30229 ft | 458 kts | 292° |
| 2026-04-28 11:56 | 48.92467 | -91.23061 | 30586 ft | 458 kts | 292° |
| 2026-04-28 11:56 | 48.93751 | -91.27488 | 30984 ft | 456 kts | 292° |
| 2026-04-28 11:56 | 48.95029 | -91.31902 | 31364 ft | 455 kts | 292° |
| 2026-04-28 11:57 | 48.96304 | -91.36319 | 31702 ft | 455 kts | 292° |
| 2026-04-28 11:57 | 48.97578 | -91.40738 | 32037 ft | 455 kts | 292° |
| 2026-04-28 11:57 | 48.98848 | -91.45150 | 32374 ft | 454 kts | 292° |
| 2026-04-28 11:57 | 49.00112 | -91.49551 | 32717 ft | 453 kts | 292° |
| 2026-04-28 11:58 | 49.01374 | -91.53949 | 33039 ft | 453 kts | 292° |
| 2026-04-28 11:58 | 49.02632 | -91.58345 | 33350 ft | 453 kts | 291° |
| 2026-04-28 11:58 | 49.03889 | -91.62744 | 33653 ft | 452 kts | 291° |
| 2026-04-28 11:58 | 49.05141 | -91.67133 | 33968 ft | 452 kts | 291° |
| 2026-04-28 11:59 | 49.06390 | -91.71524 | 34272 ft | 451 kts | 291° |
| 2026-04-28 11:59 | 49.07639 | -91.75919 | 34542 ft | 451 kts | 291° |
| 2026-04-28 11:59 | 49.08884 | -91.80310 | 34804 ft | 451 kts | 291° |
| 2026-04-28 11:59 | 49.10129 | -91.84708 | 35074 ft | 451 kts | 291° |
| 2026-04-28 12:00 | 49.11353 | -91.89044 | 35325 ft | 451 kts | 291° |
| 2026-04-28 12:00 | 49.12592 | -91.93436 | 35580 ft | 451 kts | 291° |
| 2026-04-28 12:00 | 49.13832 | -91.97839 | 35826 ft | 451 kts | 290° |
| 2026-04-28 12:00 | 49.15069 | -92.02241 | 36071 ft | 451 kts | 290° |
| 2026-04-28 12:01 | 49.16298 | -92.06621 | 36329 ft | 450 kts | 290° |
| 2026-04-28 12:01 | 49.17537 | -92.11049 | 36526 ft | 451 kts | 290° |
| 2026-04-28 12:01 | 49.18768 | -92.15454 | 36762 ft | 450 kts | 290° |
| 2026-04-28 12:01 | 49.19994 | -92.19846 | 37134 ft | 446 kts | 290° |
| 2026-04-28 12:02 | 49.21203 | -92.24180 | 37558 ft | 440 kts | 289° |
| 2026-04-28 12:02 | 49.22401 | -92.28489 | 37791 ft | 440 kts | 289° |
| 2026-04-28 12:02 | 49.24802 | -92.37169 | 37817 ft | 446 kts | 289° |
| 2026-04-28 12:03 | 49.27215 | -92.45910 | 37810 ft | 444 kts | 289° |
| 2026-04-28 12:03 | 49.29610 | -92.54610 | 37813 ft | 442 kts | 289° |
| 2026-04-28 12:04 | 49.31972 | -92.63228 | 37826 ft | 442 kts | 289° |
| 2026-04-28 12:04 | 49.34348 | -92.71937 | 37823 ft | 443 kts | 289° |
| 2026-04-28 12:05 | 49.36719 | -92.80656 | 37855 ft | 443 kts | 289° |
| 2026-04-28 12:05 | 49.39089 | -92.89401 | 37863 ft | 444 kts | 289° |
| 2026-04-28 12:06 | 49.41456 | -92.98167 | 37863 ft | 445 kts | 289° |
| 2026-04-28 12:06 | 49.43821 | -93.06954 | 37863 ft | 446 kts | 289° |
| 2026-04-28 12:07 | 49.46184 | -93.15771 | 37868 ft | 446 kts | 289° |
| 2026-04-28 12:07 | 49.48539 | -93.24590 | 37868 ft | 447 kts | 289° |
| 2026-04-28 12:08 | 49.50895 | -93.33453 | 37867 ft | 448 kts | 289° |
| 2026-04-28 12:08 | 49.53249 | -93.42337 | 37867 ft | 448 kts | 289° |
| 2026-04-28 12:09 | 49.55594 | -93.51223 | 37884 ft | 447 kts | 289° |
| 2026-04-28 12:09 | 49.57931 | -93.60108 | 37888 ft | 447 kts | 289° |
| 2026-04-28 12:10 | 49.60244 | -93.68941 | 37894 ft | 446 kts | 289° |
| 2026-04-28 12:10 | 49.62560 | -93.77818 | 37897 ft | 446 kts | 289° |
| 2026-04-28 12:11 | 49.64870 | -93.86709 | 37906 ft | 446 kts | 289° |
| 2026-04-28 12:11 | 49.67169 | -93.95594 | 37905 ft | 446 kts | 288° |
| 2026-04-28 12:12 | 49.69465 | -94.04495 | 37910 ft | 446 kts | 288° |
| 2026-04-28 12:12 | 49.71754 | -94.13409 | 37906 ft | 446 kts | 288° |
| 2026-04-28 12:13 | 49.74037 | -94.22332 | 37908 ft | 446 kts | 288° |
| 2026-04-28 12:13 | 49.76311 | -94.31251 | 37903 ft | 446 kts | 288° |
| 2026-04-28 12:14 | 49.78577 | -94.40182 | 37912 ft | 446 kts | 288° |
| 2026-04-28 12:14 | 49.80458 | -94.47623 | 37905 ft | 446 kts | 288° |
| 2026-04-28 12:15 | 49.83079 | -94.58026 | 37908 ft | 446 kts | 288° |
| 2026-04-28 12:15 | 49.84959 | -94.65525 | 37914 ft | 446 kts | 288° |
| 2026-04-28 12:16 | 49.87198 | -94.74482 | 37918 ft | 446 kts | 288° |
| 2026-04-28 12:16 | 49.89433 | -94.83458 | 37919 ft | 446 kts | 288° |
| 2026-04-28 12:17 | 49.91645 | -94.92375 | 37926 ft | 445 kts | 288° |
| 2026-04-28 12:17 | 49.93925 | -95.01324 | 37929 ft | 446 kts | 289° |
| 2026-04-28 12:18 | 49.96232 | -95.10237 | 37956 ft | 444 kts | 289° |
| 2026-04-28 12:18 | 49.98525 | -95.19150 | 37955 ft | 444 kts | 288° |
| 2026-04-28 12:19 | 50.00800 | -95.28064 | 37970 ft | 444 kts | 288° |
| 2026-04-28 12:19 | 50.03071 | -95.37003 | 37981 ft | 444 kts | 288° |
| 2026-04-28 12:20 | 50.05331 | -95.45946 | 37978 ft | 445 kts | 288° |
| 2026-04-28 12:20 | 50.07595 | -95.54931 | 37977 ft | 446 kts | 288° |
| 2026-04-28 12:21 | 50.09850 | -95.63920 | 37981 ft | 445 kts | 288° |
| 2026-04-28 12:21 | 50.12086 | -95.72871 | 37967 ft | 446 kts | 288° |
| 2026-04-28 12:22 | 50.14326 | -95.81875 | 38005 ft | 445 kts | 288° |
| 2026-04-28 12:22 | 50.16559 | -95.90880 | 38013 ft | 445 kts | 288° |
| 2026-04-28 12:23 | 50.18782 | -95.99889 | 38037 ft | 445 kts | 288° |
| 2026-04-28 12:23 | 50.20999 | -96.08910 | 38036 ft | 445 kts | 288° |
| 2026-04-28 12:24 | 50.23212 | -96.17946 | 38043 ft | 445 kts | 288° |
| 2026-04-28 12:24 | 50.25417 | -96.26988 | 38048 ft | 446 kts | 288° |
| 2026-04-28 12:25 | 50.27619 | -96.36062 | 38046 ft | 446 kts | 288° |
| 2026-04-28 12:25 | 50.29813 | -96.45131 | 38048 ft | 446 kts | 288° |
| 2026-04-28 12:26 | 50.32003 | -96.54218 | 38059 ft | 446 kts | 288° |
| 2026-04-28 12:26 | 50.34172 | -96.63259 | 38053 ft | 446 kts | 287° |
| 2026-04-28 12:27 | 50.36344 | -96.72361 | 38057 ft | 446 kts | 287° |
| 2026-04-28 12:27 | 50.38511 | -96.81475 | 38055 ft | 447 kts | 287° |
| 2026-04-28 12:28 | 50.40671 | -96.90588 | 38054 ft | 446 kts | 287° |
| 2026-04-28 12:28 | 50.42823 | -96.99715 | 38058 ft | 446 kts | 287° |
| 2026-04-28 12:29 | 50.46031 | -97.13396 | 38073 ft | 445 kts | 287° |
| 2026-04-28 12:30 | 50.48161 | -97.22524 | 38075 ft | 445 kts | 287° |
| 2026-04-28 12:30 | 50.50281 | -97.31651 | 38093 ft | 445 kts | 287° |
| 2026-04-28 12:31 | 50.52381 | -97.40725 | 38097 ft | 445 kts | 287° |
| 2026-04-28 12:31 | 50.54487 | -97.49868 | 38090 ft | 445 kts | 287° |
| 2026-04-28 12:32 | 50.56588 | -97.59025 | 38094 ft | 445 kts | 287° |
| 2026-04-28 12:32 | 50.58688 | -97.68217 | 38091 ft | 446 kts | 287° |
| 2026-04-28 12:33 | 50.60779 | -97.77413 | 38091 ft | 446 kts | 287° |
| 2026-04-28 12:33 | 50.62866 | -97.86629 | 38092 ft | 446 kts | 287° |
| 2026-04-28 12:34 | 50.64929 | -97.95781 | 38102 ft | 446 kts | 287° |
| 2026-04-28 12:34 | 50.66998 | -98.04999 | 38099 ft | 446 kts | 287° |
| 2026-04-28 12:35 | 50.69060 | -98.14232 | 38105 ft | 446 kts | 287° |
| 2026-04-28 12:35 | 50.71117 | -98.23475 | 38105 ft | 446 kts | 287° |
| 2026-04-28 12:36 | 50.73164 | -98.32719 | 38105 ft | 446 kts | 287° |
| 2026-04-28 12:36 | 50.75206 | -98.41976 | 38109 ft | 446 kts | 287° |
| 2026-04-28 12:37 | 50.77237 | -98.51228 | 38112 ft | 446 kts | 287° |
| 2026-04-28 12:37 | 50.79261 | -98.60484 | 38109 ft | 445 kts | 287° |
| 2026-04-28 12:38 | 50.81276 | -98.69748 | 38110 ft | 445 kts | 287° |
| 2026-04-28 12:38 | 50.83282 | -98.79017 | 38118 ft | 445 kts | 287° |
| 2026-04-28 12:39 | 50.85281 | -98.88296 | 38118 ft | 445 kts | 287° |
| 2026-04-28 12:39 | 50.87273 | -98.97567 | 38122 ft | 445 kts | 287° |
| 2026-04-28 12:40 | 50.89260 | -99.06868 | 38119 ft | 445 kts | 287° |
| 2026-04-28 12:40 | 50.91226 | -99.16106 | 38121 ft | 445 kts | 287° |
| 2026-04-28 12:41 | 50.93195 | -99.25407 | 38119 ft | 445 kts | 287° |
| 2026-04-28 12:41 | 50.95159 | -99.34725 | 38122 ft | 446 kts | 287° |
| 2026-04-28 12:42 | 50.97117 | -99.44060 | 38120 ft | 446 kts | 287° |
| 2026-04-28 12:42 | 50.99071 | -99.53416 | 38125 ft | 446 kts | 287° |
| 2026-04-28 12:43 | 51.01011 | -99.62758 | 38131 ft | 446 kts | 287° |
| 2026-04-28 12:43 | 51.02949 | -99.72126 | 38128 ft | 446 kts | 286° |
| 2026-04-28 12:44 | 51.04878 | -99.81490 | 38132 ft | 446 kts | 286° |
| 2026-04-28 12:44 | 51.06797 | -99.90860 | 38126 ft | 446 kts | 286° |
| 2026-04-28 12:45 | 51.08710 | -100.00233 | 38129 ft | 446 kts | 286° |
| 2026-04-28 12:45 | 51.10546 | -100.09585 | 38129 ft | 445 kts | 284° |
| 2026-04-28 12:46 | 51.12116 | -100.19178 | 38133 ft | 445 kts | 283° |
| 2026-04-28 12:46 | 51.13599 | -100.28683 | 38128 ft | 445 kts | 283° |
| 2026-04-28 12:47 | 51.15109 | -100.38250 | 38129 ft | 445 kts | 283° |
| 2026-04-28 12:47 | 51.16632 | -100.47819 | 38131 ft | 446 kts | 283° |
| 2026-04-28 12:48 | 51.18155 | -100.57390 | 38129 ft | 445 kts | 283° |
| 2026-04-28 12:48 | 51.19670 | -100.66960 | 38130 ft | 445 kts | 283° |
| 2026-04-28 12:49 | 51.21176 | -100.76542 | 38129 ft | 445 kts | 283° |
| 2026-04-28 12:49 | 51.22674 | -100.86128 | 38130 ft | 445 kts | 283° |
| 2026-04-28 12:50 | 51.24161 | -100.95704 | 38128 ft | 445 kts | 283° |
| 2026-04-28 12:50 | 51.25640 | -101.05292 | 38128 ft | 445 kts | 283° |
| 2026-04-28 12:51 | 51.27113 | -101.14884 | 38133 ft | 445 kts | 283° |
| 2026-04-28 12:51 | 51.28578 | -101.24482 | 38128 ft | 445 kts | 283° |
| 2026-04-28 12:52 | 51.30025 | -101.34028 | 38130 ft | 445 kts | 283° |
| 2026-04-28 12:52 | 51.31472 | -101.43622 | 38128 ft | 444 kts | 282° |
| 2026-04-28 12:53 | 51.32911 | -101.53232 | 38131 ft | 444 kts | 282° |
| 2026-04-28 12:53 | 51.34341 | -101.62836 | 38126 ft | 444 kts | 282° |
| 2026-04-28 12:54 | 51.35763 | -101.72439 | 38132 ft | 444 kts | 282° |
| 2026-04-28 12:54 | 51.37178 | -101.82065 | 38128 ft | 444 kts | 282° |
| 2026-04-28 12:55 | 51.38587 | -101.91702 | 38130 ft | 444 kts | 282° |
| 2026-04-28 12:55 | 51.39988 | -102.01348 | 38131 ft | 445 kts | 282° |
| 2026-04-28 12:56 | 51.41382 | -102.11008 | 38130 ft | 444 kts | 282° |
| 2026-04-28 12:56 | 51.42765 | -102.20648 | 38130 ft | 444 kts | 282° |
| 2026-04-28 12:57 | 51.44130 | -102.30221 | 38128 ft | 444 kts | 282° |
| 2026-04-28 12:57 | 51.45496 | -102.39866 | 38131 ft | 443 kts | 282° |
| 2026-04-28 12:58 | 51.46854 | -102.49517 | 38128 ft | 443 kts | 282° |
| 2026-04-28 12:58 | 51.48202 | -102.59155 | 38128 ft | 443 kts | 282° |
| 2026-04-28 12:59 | 51.49543 | -102.68804 | 38128 ft | 443 kts | 282° |
| 2026-04-28 12:59 | 51.50876 | -102.78460 | 38134 ft | 443 kts | 282° |
| 2026-04-28 13:00 | 51.52200 | -102.88122 | 38128 ft | 443 kts | 282° |
| 2026-04-28 13:00 | 51.53516 | -102.97771 | 38130 ft | 442 kts | 282° |
| 2026-04-28 13:01 | 51.54814 | -103.07373 | 38131 ft | 442 kts | 282° |
| 2026-04-28 13:01 | 51.56112 | -103.17034 | 38128 ft | 443 kts | 282° |
| 2026-04-28 13:02 | 51.57404 | -103.26703 | 38130 ft | 443 kts | 282° |
| 2026-04-28 13:02 | 51.58690 | -103.36395 | 38131 ft | 443 kts | 282° |
| 2026-04-28 13:03 | 51.59752 | -103.44446 | 38130 ft | 443 kts | 282° |
| 2026-04-28 13:03 | 51.61022 | -103.54136 | 38130 ft | 443 kts | 282° |
| 2026-04-28 13:03 | 51.61658 | -103.59018 | 37663 ft | 449 kts | 282° |
| 2026-04-28 13:04 | 51.62296 | -103.63931 | 37176 ft | 446 kts | 282° |
| 2026-04-28 13:04 | 51.62927 | -103.68812 | 36578 ft | 445 kts | 282° |
| 2026-04-28 13:04 | 51.63555 | -103.73680 | 35999 ft | 444 kts | 282° |
| 2026-04-28 13:04 | 51.64183 | -103.78564 | 35323 ft | 445 kts | 282° |
| 2026-04-28 13:05 | 51.64807 | -103.83443 | 34765 ft | 444 kts | 282° |
| 2026-04-28 13:05 | 51.65425 | -103.88285 | 34336 ft | 439 kts | 282° |
| 2026-04-28 13:05 | 51.66035 | -103.93084 | 33848 ft | 436 kts | 282° |
| 2026-04-28 13:05 | 51.66638 | -103.97838 | 33400 ft | 432 kts | 282° |
| 2026-04-28 13:06 | 51.67234 | -104.02560 | 32946 ft | 428 kts | 282° |
| 2026-04-28 13:06 | 51.67822 | -104.07235 | 32499 ft | 424 kts | 282° |
| 2026-04-28 13:06 | 51.68404 | -104.11871 | 32053 ft | 420 kts | 281° |
| 2026-04-28 13:06 | 51.68980 | -104.16475 | 31609 ft | 417 kts | 281° |
| 2026-04-28 13:07 | 51.69542 | -104.20975 | 31179 ft | 413 kts | 281° |
| 2026-04-28 13:07 | 51.70102 | -104.25485 | 30750 ft | 409 kts | 281° |
| 2026-04-28 13:07 | 51.70658 | -104.29974 | 30319 ft | 405 kts | 281° |
| 2026-04-28 13:07 | 51.71205 | -104.34415 | 29889 ft | 401 kts | 281° |
| 2026-04-28 13:08 | 51.71745 | -104.38807 | 29460 ft | 398 kts | 281° |
| 2026-04-28 13:08 | 51.72279 | -104.43165 | 29022 ft | 394 kts | 281° |
| 2026-04-28 13:08 | 51.72806 | -104.47477 | 28585 ft | 390 kts | 281° |
| 2026-04-28 13:08 | 51.73325 | -104.51747 | 28150 ft | 386 kts | 281° |
| 2026-04-28 13:09 | 51.73840 | -104.55985 | 27729 ft | 383 kts | 281° |
| 2026-04-28 13:09 | 51.74347 | -104.60181 | 27308 ft | 380 kts | 281° |
| 2026-04-28 13:09 | 51.74849 | -104.64347 | 26883 ft | 376 kts | 281° |
| 2026-04-28 13:09 | 51.75346 | -104.68479 | 26466 ft | 373 kts | 281° |
| 2026-04-28 13:10 | 51.75836 | -104.72559 | 26049 ft | 370 kts | 282° |
| 2026-04-28 13:10 | 51.76316 | -104.76570 | 25654 ft | 366 kts | 281° |
| 2026-04-28 13:10 | 51.76794 | -104.80587 | 25247 ft | 363 kts | 282° |
| 2026-04-28 13:10 | 51.77268 | -104.84583 | 24842 ft | 360 kts | 282° |
| 2026-04-28 13:11 | 51.77736 | -104.88537 | 24448 ft | 357 kts | 282° |
| 2026-04-28 13:11 | 51.78199 | -104.92462 | 24045 ft | 354 kts | 282° |
| 2026-04-28 13:11 | 51.78658 | -104.96360 | 23653 ft | 351 kts | 282° |
| 2026-04-28 13:11 | 51.79111 | -105.00217 | 23251 ft | 349 kts | 282° |
| 2026-04-28 13:12 | 51.79559 | -105.04053 | 22866 ft | 346 kts | 282° |
| 2026-04-28 13:12 | 51.80004 | -105.07858 | 22474 ft | 343 kts | 282° |
| 2026-04-28 13:12 | 51.80444 | -105.11636 | 22090 ft | 341 kts | 282° |
| 2026-04-28 13:12 | 51.80879 | -105.15389 | 21707 ft | 338 kts | 282° |
| 2026-04-28 13:13 | 51.81346 | -105.19105 | 21360 ft | 335 kts | 284° |
| 2026-04-28 13:13 | 51.81923 | -105.22706 | 21095 ft | 328 kts | 287° |
| 2026-04-28 13:13 | 51.82594 | -105.26239 | 20664 ft | 328 kts | 289° |
| 2026-04-28 13:13 | 51.83294 | -105.29673 | 20334 ft | 325 kts | 290° |
| 2026-04-28 13:14 | 51.84000 | -105.33137 | 19938 ft | 323 kts | 290° |
| 2026-04-28 13:14 | 51.84691 | -105.36591 | 19576 ft | 321 kts | 289° |
| 2026-04-28 13:14 | 51.85362 | -105.40022 | 19209 ft | 319 kts | 289° |
| 2026-04-28 13:14 | 51.86015 | -105.43436 | 18851 ft | 315 kts | 289° |
| 2026-04-28 13:15 | 51.86642 | -105.46806 | 18491 ft | 312 kts | 289° |
| 2026-04-28 13:15 | 51.87272 | -105.50155 | 18132 ft | 311 kts | 289° |
| 2026-04-28 13:15 | 51.87900 | -105.53491 | 17783 ft | 309 kts | 289° |
| 2026-04-28 13:15 | 51.88523 | -105.56819 | 17398 ft | 308 kts | 289° |
| 2026-04-28 13:16 | 51.89147 | -105.60158 | 16942 ft | 310 kts | 289° |
| 2026-04-28 13:16 | 51.89766 | -105.63486 | 16603 ft | 308 kts | 289° |
| 2026-04-28 13:16 | 51.90381 | -105.66799 | 16226 ft | 307 kts | 289° |
| 2026-04-28 13:16 | 51.90992 | -105.70107 | 15878 ft | 305 kts | 289° |
| 2026-04-28 13:17 | 51.91597 | -105.73385 | 15520 ft | 303 kts | 289° |
| 2026-04-28 13:17 | 51.92197 | -105.76643 | 15173 ft | 301 kts | 289° |
| 2026-04-28 13:17 | 51.92794 | -105.79888 | 14821 ft | 299 kts | 289° |
| 2026-04-28 13:17 | 51.93387 | -105.83116 | 14478 ft | 298 kts | 289° |
| 2026-04-28 13:18 | 51.93974 | -105.86325 | 14129 ft | 296 kts | 289° |
| 2026-04-28 13:18 | 51.94558 | -105.89515 | 13788 ft | 294 kts | 289° |
| 2026-04-28 13:18 | 51.95138 | -105.92685 | 13443 ft | 292 kts | 289° |
| 2026-04-28 13:18 | 51.95713 | -105.95839 | 13110 ft | 291 kts | 288° |
| 2026-04-28 13:19 | 51.96285 | -105.98973 | 12762 ft | 289 kts | 289° |
| 2026-04-28 13:19 | 51.96863 | -106.02075 | 12442 ft | 287 kts | 289° |
| 2026-04-28 13:19 | 51.97444 | -106.05158 | 12111 ft | 285 kts | 289° |
| 2026-04-28 13:19 | 51.98016 | -106.08187 | 11783 ft | 283 kts | 289° |
| 2026-04-28 13:20 | 51.98590 | -106.11234 | 11452 ft | 282 kts | 289° |
| 2026-04-28 13:20 | 51.99160 | -106.14263 | 11122 ft | 280 kts | 288° |
| 2026-04-28 13:20 | 51.99726 | -106.17283 | 10782 ft | 279 kts | 288° |
| 2026-04-28 13:20 | 52.00288 | -106.20289 | 10455 ft | 278 kts | 288° |
| 2026-04-28 13:21 | 52.00839 | -106.23242 | 10342 ft | 268 kts | 288° |
| 2026-04-28 13:21 | 52.01371 | -106.26098 | 10219 ft | 260 kts | 288° |
| 2026-04-28 13:21 | 52.01886 | -106.28874 | 10097 ft | 253 kts | 288° |
| 2026-04-28 13:21 | 52.02385 | -106.31566 | 9981 ft | 246 kts | 288° |
| 2026-04-28 13:22 | 52.02878 | -106.34224 | 9691 ft | 247 kts | 288° |
| 2026-04-28 13:22 | 52.03372 | -106.36883 | 9454 ft | 245 kts | 287° |
| 2026-04-28 13:22 | 52.03862 | -106.39528 | 9188 ft | 244 kts | 287° |
| 2026-04-28 13:22 | 52.04350 | -106.42168 | 8929 ft | 243 kts | 287° |
| 2026-04-28 13:23 | 52.04835 | -106.44801 | 8672 ft | 243 kts | 287° |
| 2026-04-28 13:23 | 52.05317 | -106.47426 | 8418 ft | 242 kts | 287° |
| 2026-04-28 13:23 | 52.05799 | -106.50045 | 8154 ft | 242 kts | 287° |
| 2026-04-28 13:23 | 52.06279 | -106.52661 | 7896 ft | 241 kts | 287° |
| 2026-04-28 13:24 | 52.06759 | -106.55270 | 7636 ft | 241 kts | 287° |
| 2026-04-28 13:24 | 52.07236 | -106.57881 | 7379 ft | 241 kts | 287° |
| 2026-04-28 13:24 | 52.07705 | -106.60453 | 7123 ft | 240 kts | 287° |
| 2026-04-28 13:24 | 52.08180 | -106.63053 | 6873 ft | 240 kts | 287° |
| 2026-04-28 13:25 | 52.08649 | -106.65654 | 6604 ft | 240 kts | 285° |
| 2026-04-28 13:25 | 52.09010 | -106.68291 | 6437 ft | 236 kts | 281° |
| 2026-04-28 13:25 | 52.09300 | -106.70869 | 6355 ft | 227 kts | 281° |
| 2026-04-28 13:25 | 52.09585 | -106.73368 | 6231 ft | 221 kts | 281° |
| 2026-04-28 13:26 | 52.09866 | -106.75777 | 6133 ft | 213 kts | 281° |
| 2026-04-28 13:26 | 52.10141 | -106.78116 | 6043 ft | 211 kts | 281° |
| 2026-04-28 13:26 | 52.10420 | -106.80471 | 5991 ft | 213 kts | 281° |
| 2026-04-28 13:26 | 52.10701 | -106.82845 | 5914 ft | 215 kts | 281° |
| 2026-04-28 13:27 | 52.10981 | -106.85205 | 5859 ft | 206 kts | 281° |
| 2026-04-28 13:27 | 52.11240 | -106.87394 | 5782 ft | 193 kts | 281° |
| 2026-04-28 13:27 | 52.11485 | -106.89461 | 5706 ft | 179 kts | 281° |
| 2026-04-28 13:27 | 52.11714 | -106.91400 | 5646 ft | 173 kts | 281° |
| 2026-04-28 13:28 | 52.11939 | -106.93305 | 5600 ft | 170 kts | 281° |
| 2026-04-28 13:28 | 52.12160 | -106.95185 | 5549 ft | 170 kts | 281° |
| 2026-04-28 13:28 | 52.12383 | -106.97078 | 5495 ft | 169 kts | 281° |
| 2026-04-28 13:28 | 52.12603 | -106.98950 | 5445 ft | 170 kts | 281° |
| 2026-04-28 13:29 | 52.12825 | -107.00846 | 5386 ft | 169 kts | 281° |
| 2026-04-28 13:29 | 52.13042 | -107.02709 | 5361 ft | 166 kts | 281° |
| 2026-04-28 13:29 | 52.13257 | -107.04572 | 5292 ft | 168 kts | 281° |
| 2026-04-28 13:29 | 52.13472 | -107.06437 | 5228 ft | 168 kts | 281° |
| 2026-04-28 13:30 | 52.14027 | -107.08185 | 4790 ft | 184 kts | 323° |
| 2026-04-28 13:30 | 52.15211 | -107.08616 | 4612 ft | 177 kts | 14° |
| 2026-04-28 13:30 | 52.16215 | -107.07562 | 4571 ft | 174 kts | 45° |
| 2026-04-28 13:30 | 52.17030 | -107.06057 | 4473 ft | 179 kts | 49° |
| 2026-04-28 13:31 | 52.18635 | -107.02956 | 4281 ft | 177 kts | 49° |
| 2026-04-28 13:31 | 52.19432 | -107.01422 | 4164 ft | 177 kts | 49° |
| 2026-04-28 13:31 | 52.20238 | -106.99884 | 4059 ft | 180 kts | 48° |
| 2026-04-28 13:32 | 52.20852 | -106.98141 | 3979 ft | 179 kts | 82° |
| 2026-04-28 13:32 | 52.20718 | -106.96201 | 4038 ft | 176 kts | 101° |
| 2026-04-28 13:32 | 52.20517 | -106.94220 | 4046 ft | 173 kts | 99° |
| 2026-04-28 13:32 | 52.20319 | -106.92341 | 3984 ft | 163 kts | 101° |
| 2026-04-28 13:33 | 52.20108 | -106.90542 | 3898 ft | 162 kts | 101° |
| 2026-04-28 13:33 | 52.19890 | -106.88739 | 3698 ft | 162 kts | 102° |
| 2026-04-28 13:33 | 52.19673 | -106.86948 | 3485 ft | 160 kts | 102° |
| 2026-04-28 13:33 | 52.19461 | -106.85197 | 3270 ft | 156 kts | 102° |
| 2026-04-28 13:34 | 52.19252 | -106.83465 | 3080 ft | 156 kts | 102° |
| 2026-04-28 13:34 | 52.19043 | -106.81737 | 2868 ft | 153 kts | 101° |
| 2026-04-28 13:34 | 52.18840 | -106.80055 | 2667 ft | 150 kts | 101° |
| 2026-04-28 13:34 | 52.18639 | -106.78384 | 2468 ft | 151 kts | 101° |
| 2026-04-28 13:35 | 52.18435 | -106.76695 | 2226 ft | 152 kts | 101° |
| 2026-04-28 13:35 | 52.18226 | -106.75021 | 2037 ft | 150 kts | 101° |
| 2026-04-28 13:35 | 52.18030 | -106.73347 | 1795 ft | 149 kts | 101° |
| 2026-04-28 13:35 | 52.17843 | -106.71708 | 1668 ft | 147 kts | 99° |
| 2026-04-28 13:36 | 52.17688 | -106.70361 | 1646 ft | 67 kts | 102° |
| 2026-04-28 13:36 | 52.17639 | -106.69955 | 1649 ft | 2 kts | 99° |
| 2026-04-28 13:36 | 52.17636 | -106.69926 | 1649 ft | 3 kts | 103° |
| 2026-04-28 13:36 | 52.17631 | -106.69895 | 1649 ft | 3 kts | 104° |
| 2026-04-28 13:37 | 52.17618 | -106.69869 | 1649 ft | 3 kts | 151° |
| 2026-04-28 13:37 | 52.17614 | -106.69867 | 1649 ft | 0 kts | 159° |
| 2026-04-28 13:37 | 52.17597 | -106.69856 | 1649 ft | 9 kts | 158° |
| 2026-04-28 13:37 | 52.17517 | -106.69808 | 1649 ft | 14 kts | 160° |
| 2026-04-28 13:38 | 52.17429 | -106.69757 | 1649 ft | 13 kts | 160° |
| 2026-04-28 13:38 | 52.17345 | -106.69707 | 1649 ft | 13 kts | 159° |
| 2026-04-28 13:38 | 52.17263 | -106.69661 | 1649 ft | 12 kts | 162° |
| 2026-04-28 13:38 | 52.17182 | -106.69617 | 1649 ft | 12 kts | 162° |
| 2026-04-28 13:39 | 52.17103 | -106.69577 | 1649 ft | 12 kts | 162° |
| 2026-04-28 13:39 | 52.17026 | -106.69533 | 1649 ft | 12 kts | 150° |
| 2026-04-28 13:39 | 52.17022 | -106.69445 | 1649 ft | 7 kts | 45° |
| 2026-04-28 13:39 | 52.17038 | -106.69379 | 1649 ft | 7 kts | 115° |
| 2026-04-28 13:40 | 52.17023 | -106.69351 | 1649 ft | 2 kts | 133° |
| 2026-04-28 13:40 | 52.17009 | -106.69326 | 1649 ft | 3 kts | 132° |
| 2026-04-28 13:40 | 52.17008 | -106.69323 | 1649 ft | 0 kts | 132° |